createdAt,value
2019-02-17T00:00:19.642Z,1018.38
2019-02-17T00:01:19.673Z,1018.40
2019-02-17T00:02:19.624Z,1018.40
2019-02-17T00:03:19.606Z,1018.41
2019-02-17T00:04:19.599Z,1018.38
2019-02-17T00:05:19.584Z,1018.36
2019-02-17T00:06:19.585Z,1018.37
2019-02-17T00:07:19.602Z,1018.37
2019-02-17T00:08:19.555Z,1018.39
2019-02-17T00:09:19.543Z,1018.38
2019-02-17T00:10:19.531Z,1018.42
2019-02-17T00:11:19.533Z,1018.40
2019-02-17T00:12:19.510Z,1018.38
2019-02-17T00:13:19.513Z,1018.40
2019-02-17T00:14:19.492Z,1018.40
2019-02-17T00:15:19.471Z,1018.41
2019-02-17T00:16:19.471Z,1018.40
2019-02-17T00:17:19.461Z,1018.39
2019-02-17T00:18:19.445Z,1018.40
2019-02-17T00:19:19.490Z,1018.39
2019-02-17T00:20:19.423Z,1018.37
2019-02-17T00:21:19.431Z,1018.40
2019-02-17T00:22:19.395Z,1018.44
2019-02-17T00:23:19.391Z,1018.45
2019-02-17T00:24:19.375Z,1018.44
2019-02-17T00:25:20.502Z,1018.44
2019-02-17T00:26:19.354Z,1018.38
2019-02-17T00:27:19.352Z,1018.43
2019-02-17T00:28:19.331Z,1018.40
2019-02-17T00:29:19.331Z,1018.35
2019-02-17T00:30:19.304Z,1018.34
2019-02-17T00:31:19.296Z,1018.32
2019-02-17T00:32:19.351Z,1018.34
2019-02-17T00:33:19.272Z,1018.29
2019-02-17T00:34:19.262Z,1018.26
2019-02-17T00:35:19.248Z,1018.25
2019-02-17T00:36:19.240Z,1018.21
2019-02-17T00:37:19.234Z,1018.24
2019-02-17T00:38:19.283Z,1018.25
2019-02-17T00:39:19.207Z,1018.24
2019-02-17T00:40:19.197Z,1018.22
2019-02-17T00:41:19.182Z,1018.28
2019-02-17T00:42:19.172Z,1018.31
2019-02-17T00:43:19.162Z,1018.28
2019-02-17T00:44:19.202Z,1018.32
2019-02-17T00:45:19.138Z,1018.32
2019-02-17T00:46:19.125Z,1018.32
2019-02-17T00:47:19.115Z,1018.28
2019-02-17T00:48:19.126Z,1018.32
2019-02-17T00:49:19.100Z,1018.28
2019-02-17T00:50:19.151Z,1018.27
2019-02-17T00:51:19.085Z,1018.32
2019-02-17T00:52:19.059Z,1018.29
2019-02-17T00:53:19.051Z,1018.31
2019-02-17T00:54:19.036Z,1018.26
2019-02-17T00:55:19.029Z,1018.26
2019-02-17T00:56:19.065Z,1018.27
2019-02-17T00:57:19.025Z,1018.24
2019-02-17T00:58:19.006Z,1018.22
2019-02-17T00:59:18.983Z,1018.19
2019-02-17T01:00:18.970Z,1018.17
2019-02-17T01:01:18.963Z,1018.20
2019-02-17T01:02:19.008Z,1018.21
2019-02-17T01:03:19.016Z,1018.21
2019-02-17T01:04:18.937Z,1018.21
2019-02-17T01:05:18.921Z,1018.14
2019-02-17T01:06:18.911Z,1018.22
2019-02-17T01:07:18.911Z,1018.16
2019-02-17T01:08:18.925Z,1018.17
2019-02-17T01:09:18.924Z,1018.17
2019-02-17T01:10:18.860Z,1018.20
2019-02-17T01:11:18.852Z,1018.21
2019-02-17T01:12:18.844Z,1018.20
2019-02-17T01:13:18.830Z,1018.21
2019-02-17T01:14:18.819Z,1018.21
2019-02-17T01:15:18.882Z,1018.21
2019-02-17T01:16:18.793Z,1018.22
2019-02-17T01:17:18.784Z,1018.24
2019-02-17T01:18:18.774Z,1018.20
2019-02-17T01:19:18.767Z,1018.20
2019-02-17T01:20:18.774Z,1018.14
2019-02-17T01:21:18.762Z,1018.21
2019-02-17T01:22:18.730Z,1018.19
2019-02-17T01:23:18.735Z,1018.13
2019-02-17T01:24:18.708Z,1018.17
2019-02-17T01:25:18.715Z,1018.14
2019-02-17T01:26:18.687Z,1018.14
2019-02-17T01:27:18.712Z,1018.14
2019-02-17T01:28:18.662Z,1018.12
2019-02-17T01:29:20.816Z,1018.10
2019-02-17T01:30:18.647Z,1018.10
2019-02-17T01:31:18.652Z,1018.14
2019-02-17T01:32:18.616Z,1018.06
2019-02-17T01:33:18.666Z,1018.06
2019-02-17T01:34:18.592Z,1018.09
2019-02-17T01:35:18.596Z,1018.09
2019-02-17T01:36:18.576Z,1018.09
2019-02-17T01:37:18.576Z,1018.16
2019-02-17T01:38:18.566Z,1018.06
2019-02-17T01:39:18.578Z,1018.09
2019-02-17T01:40:18.529Z,1018.07
2019-02-17T01:41:18.517Z,1018.12
2019-02-17T01:42:18.509Z,1018.09
2019-02-17T01:43:18.494Z,1018.11
2019-02-17T01:44:18.495Z,1018.11
2019-02-17T01:45:18.521Z,1018.07
2019-02-17T01:46:18.462Z,1018.10
2019-02-17T01:47:18.452Z,1018.07
2019-02-17T01:48:18.441Z,1018.07
2019-02-17T01:49:18.431Z,1018.08
2019-02-17T01:50:18.435Z,1018.04
2019-02-17T01:51:18.439Z,1018.05
2019-02-17T01:52:18.397Z,1018.04
2019-02-17T01:53:18.383Z,1018.01
2019-02-17T01:54:18.387Z,1018.00
2019-02-17T01:55:18.356Z,1018.00
2019-02-17T01:56:18.347Z,1018.03
2019-02-17T01:57:18.377Z,1018.02
2019-02-17T01:58:18.350Z,1017.98
2019-02-17T01:59:18.321Z,1017.99
2019-02-17T02:00:18.316Z,1017.95
2019-02-17T02:01:18.294Z,1017.95
2019-02-17T02:02:18.287Z,1017.96
2019-02-17T02:03:18.311Z,1017.95
2019-02-17T02:04:18.276Z,1017.98
2019-02-17T02:05:18.247Z,1017.92
2019-02-17T02:06:18.238Z,1017.91
2019-02-17T02:07:18.246Z,1017.94
2019-02-17T02:08:18.213Z,1017.89
2019-02-17T02:09:18.255Z,1017.89
2019-02-17T02:10:18.209Z,1017.87
2019-02-17T02:11:18.181Z,1017.87
2019-02-17T02:12:18.171Z,1017.87
2019-02-17T02:13:18.157Z,1017.85
2019-02-17T02:14:18.154Z,1017.79
2019-02-17T02:15:18.217Z,1017.81
2019-02-17T02:16:18.123Z,1017.79
2019-02-17T02:17:18.113Z,1017.82
2019-02-17T02:18:18.102Z,1017.79
2019-02-17T02:19:18.091Z,1017.79
2019-02-17T02:20:18.081Z,1017.74
2019-02-17T02:21:18.125Z,1017.77
2019-02-17T02:22:18.055Z,1017.74
2019-02-17T02:23:18.049Z,1017.80
2019-02-17T02:24:18.039Z,1017.80
2019-02-17T02:25:18.023Z,1017.78
2019-02-17T02:26:18.021Z,1017.74
2019-02-17T02:27:18.065Z,1017.76
2019-02-17T02:28:17.989Z,1017.75
2019-02-17T02:29:17.981Z,1017.76
2019-02-17T02:30:17.973Z,1017.76
2019-02-17T02:31:17.954Z,1017.74
2019-02-17T02:32:17.962Z,1017.71
2019-02-17T02:33:17.984Z,1017.72
2019-02-17T02:34:17.923Z,1017.71
2019-02-17T02:35:17.911Z,1017.69
2019-02-17T02:36:17.908Z,1017.70
2019-02-17T02:37:17.893Z,1017.72
2019-02-17T02:38:17.896Z,1017.73
2019-02-17T02:39:17.915Z,1017.72
2019-02-17T02:40:17.858Z,1017.71
2019-02-17T02:41:17.852Z,1017.68
2019-02-17T02:42:17.842Z,1017.68
2019-02-17T02:43:17.842Z,1017.70
2019-02-17T02:44:17.814Z,1017.69
2019-02-17T02:45:17.854Z,1017.70
2019-02-17T02:46:17.792Z,1017.71
2019-02-17T02:47:17.781Z,1017.71
2019-02-17T02:48:17.769Z,1017.69
2019-02-17T02:49:17.775Z,1017.71
2019-02-17T02:50:17.745Z,1017.72
2019-02-17T02:51:17.780Z,1017.70
2019-02-17T02:52:17.736Z,1017.73
2019-02-17T02:53:17.711Z,1017.74
2019-02-17T02:54:17.705Z,1017.76
2019-02-17T02:55:17.717Z,1017.73
2019-02-17T02:56:17.678Z,1017.74
2019-02-17T02:57:17.669Z,1017.76
2019-02-17T02:58:17.710Z,1017.76
2019-02-17T02:59:17.648Z,1017.73
2019-02-17T03:00:17.642Z,1017.73
2019-02-17T03:01:17.635Z,1017.69
2019-02-17T03:02:17.623Z,1017.70
2019-02-17T03:03:17.599Z,1017.70
2019-02-17T03:04:17.653Z,1017.66
2019-02-17T03:05:17.581Z,1017.64
2019-02-17T03:06:17.586Z,1017.60
2019-02-17T03:07:17.556Z,1017.64
2019-02-17T03:08:17.559Z,1017.59
2019-02-17T03:09:17.540Z,1017.63
2019-02-17T03:10:17.587Z,1017.60
2019-02-17T03:11:17.518Z,1017.62
2019-02-17T03:12:17.502Z,1017.59
2019-02-17T03:13:17.495Z,1017.59
2019-02-17T03:14:17.501Z,1017.57
2019-02-17T03:15:17.471Z,1017.58
2019-02-17T03:16:17.453Z,1017.58
2019-02-17T03:17:17.491Z,1017.55
2019-02-17T03:18:17.433Z,1017.58
2019-02-17T03:19:17.423Z,1017.53
2019-02-17T03:20:17.416Z,1017.53
2019-02-17T03:21:17.403Z,1017.53
2019-02-17T03:22:17.402Z,1017.56
2019-02-17T03:23:17.451Z,1017.54
2019-02-17T03:24:17.365Z,1017.56
2019-02-17T03:25:17.359Z,1017.52
2019-02-17T03:26:17.349Z,1017.53
2019-02-17T03:27:17.361Z,1017.47
2019-02-17T03:28:17.323Z,1017.49
2019-02-17T03:29:17.356Z,1017.49
2019-02-17T03:30:17.304Z,1017.48
2019-02-17T03:31:17.288Z,1017.48
2019-02-17T03:32:17.279Z,1017.46
2019-02-17T03:33:17.278Z,1017.47
2019-02-17T03:34:17.271Z,1017.41
2019-02-17T03:35:17.283Z,1017.44
2019-02-17T03:36:17.236Z,1017.41
2019-02-17T03:37:17.224Z,1017.44
2019-02-17T03:38:17.215Z,1017.45
2019-02-17T03:39:17.220Z,1017.44
2019-02-17T03:40:17.242Z,1017.45
2019-02-17T03:41:17.206Z,1017.42
2019-02-17T03:42:17.167Z,1017.39
2019-02-17T03:43:17.159Z,1017.42
2019-02-17T03:44:17.152Z,1017.39
2019-02-17T03:45:17.145Z,1017.36
2019-02-17T03:46:17.145Z,1017.42
2019-02-17T03:47:17.149Z,1017.34
2019-02-17T03:48:17.099Z,1017.35
2019-02-17T03:49:17.092Z,1017.40
2019-02-17T03:50:17.081Z,1017.34
2019-02-17T03:51:17.068Z,1017.28
2019-02-17T03:52:17.081Z,1017.38
2019-02-17T03:53:17.081Z,1017.33
2019-02-17T03:54:17.036Z,1017.33
2019-02-17T03:55:17.025Z,1017.32
2019-02-17T03:56:17.013Z,1017.33
2019-02-17T03:57:17.004Z,1017.32
2019-02-17T03:58:17.010Z,1017.28
2019-02-17T03:59:17.015Z,1017.29
2019-02-17T04:00:17.561Z,1017.29
2019-02-17T04:01:16.960Z,1017.23
2019-02-17T04:02:16.951Z,1017.25
2019-02-17T04:03:16.940Z,1017.27
2019-02-17T04:04:16.938Z,1017.22
2019-02-17T04:05:16.950Z,1017.20
2019-02-17T04:06:16.897Z,1017.23
2019-02-17T04:07:16.886Z,1017.26
2019-02-17T04:08:16.879Z,1017.25
2019-02-17T04:09:16.883Z,1017.24
2019-02-17T04:10:16.852Z,1017.23
2019-02-17T04:11:16.867Z,1017.20
2019-02-17T04:12:16.830Z,1017.24
2019-02-17T04:13:16.819Z,1017.20
2019-02-17T04:14:16.808Z,1017.21
2019-02-17T04:15:16.824Z,1017.20
2019-02-17T04:16:16.789Z,1017.16
2019-02-17T04:17:16.836Z,1017.18
2019-02-17T04:18:16.768Z,1017.18
2019-02-17T04:19:16.753Z,1017.16
2019-02-17T04:20:16.741Z,1017.19
2019-02-17T04:21:16.733Z,1017.15
2019-02-17T04:22:16.722Z,1017.17
2019-02-17T04:23:16.763Z,1017.17
2019-02-17T04:24:16.698Z,1017.14
2019-02-17T04:25:16.686Z,1017.15
2019-02-17T04:26:16.676Z,1017.13
2019-02-17T04:27:16.691Z,1017.12
2019-02-17T04:28:16.658Z,1017.11
2019-02-17T04:29:16.684Z,1017.14
2019-02-17T04:30:28.159Z,1017.10
2019-02-17T04:31:17.619Z,1017.11
2019-02-17T04:32:16.608Z,1017.15
2019-02-17T04:33:16.600Z,1017.12
2019-02-17T04:34:16.593Z,1017.13
2019-02-17T04:35:16.598Z,1017.11
2019-02-17T04:36:16.564Z,1017.13
2019-02-17T04:37:16.554Z,1017.11
2019-02-17T04:38:16.544Z,1017.11
2019-02-17T04:39:16.553Z,1017.11
2019-02-17T04:40:16.548Z,1017.07
2019-02-17T04:41:16.510Z,1017.08
2019-02-17T04:42:16.499Z,1017.07
2019-02-17T04:43:16.518Z,1017.06
2019-02-17T04:44:16.479Z,1017.05
2019-02-17T04:45:16.488Z,1017.04
2019-02-17T04:46:16.489Z,1017.08
2019-02-17T04:47:16.446Z,1017.02
2019-02-17T04:48:16.434Z,1017.06
2019-02-17T04:49:16.420Z,1017.04
2019-02-17T04:50:16.409Z,1017.04
2019-02-17T04:51:16.414Z,1017.02
2019-02-17T04:52:16.423Z,1017.03
2019-02-17T04:53:16.377Z,1017.00
2019-02-17T04:54:16.366Z,1017.00
2019-02-17T04:55:16.354Z,1017.02
2019-02-17T04:56:16.343Z,1016.98
2019-02-17T04:57:16.419Z,1016.95
2019-02-17T04:58:16.353Z,1016.94
2019-02-17T04:59:16.310Z,1016.94
2019-02-17T05:00:16.308Z,1016.95
2019-02-17T05:01:16.291Z,1016.97
2019-02-17T05:02:16.288Z,1016.93
2019-02-17T05:03:16.277Z,1016.93
2019-02-17T05:04:16.296Z,1016.93
2019-02-17T05:05:16.244Z,1016.96
2019-02-17T05:06:16.234Z,1016.94
2019-02-17T05:07:16.223Z,1016.92
2019-02-17T05:08:16.222Z,1016.91
2019-02-17T05:09:16.199Z,1016.86
2019-02-17T05:10:16.248Z,1016.83
2019-02-17T05:11:16.190Z,1016.85
2019-02-17T05:12:16.168Z,1016.83
2019-02-17T05:13:16.159Z,1016.79
2019-02-17T05:14:16.167Z,1016.82
2019-02-17T05:15:16.134Z,1016.78
2019-02-17T05:16:16.172Z,1016.79
2019-02-17T05:17:16.113Z,1016.80
2019-02-17T05:18:16.100Z,1016.72
2019-02-17T05:19:16.093Z,1016.76
2019-02-17T05:20:16.093Z,1016.76
2019-02-17T05:21:16.069Z,1016.74
2019-02-17T05:22:16.105Z,1016.76
2019-02-17T05:23:16.044Z,1016.71
2019-02-17T05:24:16.055Z,1016.72
2019-02-17T05:25:16.026Z,1016.74
2019-02-17T05:26:16.043Z,1016.70
2019-02-17T05:27:16.000Z,1016.73
2019-02-17T05:28:16.013Z,1016.70
2019-02-17T05:29:15.980Z,1016.72
2019-02-17T05:30:15.978Z,1016.71
2019-02-17T05:31:15.966Z,1016.67
2019-02-17T05:32:15.962Z,1016.74
2019-02-17T05:33:15.936Z,1016.69
2019-02-17T05:34:15.950Z,1016.72
2019-02-17T05:35:15.913Z,1016.66
2019-02-17T05:36:15.913Z,1016.69
2019-02-17T05:37:15.902Z,1016.67
2019-02-17T05:38:15.890Z,1016.69
2019-02-17T05:39:15.869Z,1016.67
2019-02-17T05:40:15.881Z,1016.71
2019-02-17T05:41:15.848Z,1016.70
2019-02-17T05:42:15.838Z,1016.69
2019-02-17T05:43:15.853Z,1016.67
2019-02-17T05:44:15.812Z,1016.66
2019-02-17T05:45:15.801Z,1016.64
2019-02-17T05:46:15.829Z,1016.68
2019-02-17T05:47:15.779Z,1016.66
2019-02-17T05:48:15.767Z,1016.67
2019-02-17T05:49:15.808Z,1016.65
2019-02-17T05:50:15.747Z,1016.68
2019-02-17T05:51:15.737Z,1016.69
2019-02-17T05:52:15.757Z,1016.65
2019-02-17T05:53:15.719Z,1016.68
2019-02-17T05:54:15.722Z,1016.70
2019-02-17T05:55:15.693Z,1016.66
2019-02-17T05:56:15.679Z,1016.68
2019-02-17T05:57:15.674Z,1016.68
2019-02-17T05:58:15.775Z,1016.68
2019-02-17T05:59:15.653Z,1016.67
2019-02-17T06:00:15.653Z,1016.64
2019-02-17T06:01:15.627Z,1016.69
2019-02-17T06:02:15.613Z,1016.69
2019-02-17T06:03:15.601Z,1016.63
2019-02-17T06:04:15.634Z,1016.65
2019-02-17T06:05:15.612Z,1016.66
2019-02-17T06:06:15.570Z,1016.63
2019-02-17T06:07:15.560Z,1016.62
2019-02-17T06:08:15.551Z,1016.58
2019-02-17T06:09:15.537Z,1016.60
2019-02-17T06:10:15.558Z,1016.59
2019-02-17T06:11:15.542Z,1016.59
2019-02-17T06:12:15.507Z,1016.62
2019-02-17T06:13:15.491Z,1016.57
2019-02-17T06:14:15.483Z,1016.62
2019-02-17T06:15:15.472Z,1016.62
2019-02-17T06:16:15.498Z,1016.60
2019-02-17T06:17:15.466Z,1016.64
2019-02-17T06:18:15.436Z,1016.65
2019-02-17T06:19:17.660Z,1016.67
2019-02-17T06:20:15.414Z,1016.68
2019-02-17T06:21:15.406Z,1016.72
2019-02-17T06:22:15.422Z,1016.67
2019-02-17T06:23:15.392Z,1016.65
2019-02-17T06:24:15.372Z,1016.69
2019-02-17T06:25:15.360Z,1016.68
2019-02-17T06:26:15.350Z,1016.69
2019-02-17T06:27:15.338Z,1016.66
2019-02-17T06:28:15.396Z,1016.64
2019-02-17T06:29:15.315Z,1016.68
2019-02-17T06:30:15.305Z,1016.62
2019-02-17T06:31:15.296Z,1016.62
2019-02-17T06:32:15.282Z,1016.63
2019-02-17T06:33:15.275Z,1016.62
2019-02-17T06:34:15.395Z,1016.64
2019-02-17T06:35:15.248Z,1016.62
2019-02-17T06:36:15.238Z,1016.61
2019-02-17T06:37:15.227Z,1016.59
2019-02-17T06:38:15.219Z,1016.60
2019-02-17T06:39:15.220Z,1016.64
2019-02-17T06:40:15.223Z,1016.64
2019-02-17T06:41:15.189Z,1016.62
2019-02-17T06:42:15.215Z,1016.65
2019-02-17T06:43:15.161Z,1016.63
2019-02-17T06:44:15.150Z,1016.64
2019-02-17T06:45:15.156Z,1016.63
2019-02-17T06:46:15.149Z,1016.67
2019-02-17T06:47:15.119Z,1016.64
2019-02-17T06:48:15.107Z,1016.68
2019-02-17T06:49:15.096Z,1016.69
2019-02-17T06:50:15.083Z,1016.69
2019-02-17T06:51:15.085Z,1016.67
2019-02-17T06:52:15.078Z,1016.66
2019-02-17T06:53:15.050Z,1016.69
2019-02-17T06:54:15.039Z,1016.71
2019-02-17T06:55:15.037Z,1016.67
2019-02-17T06:56:15.030Z,1016.72
2019-02-17T06:57:15.020Z,1016.71
2019-02-17T06:58:15.031Z,1016.69
2019-02-17T06:59:14.983Z,1016.68
2019-02-17T07:00:14.979Z,1016.72
2019-02-17T07:01:24.146Z,1016.71
2019-02-17T07:02:15.969Z,1016.72
2019-02-17T07:03:14.941Z,1016.74
2019-02-17T07:04:14.968Z,1016.71
2019-02-17T07:05:14.942Z,1016.74
2019-02-17T07:06:14.933Z,1016.74
2019-02-17T07:07:14.920Z,1016.72
2019-02-17T07:08:14.906Z,1016.70
2019-02-17T07:09:14.874Z,1016.71
2019-02-17T07:10:14.885Z,1016.72
2019-02-17T07:11:14.852Z,1016.66
2019-02-17T07:12:14.865Z,1016.68
2019-02-17T07:13:14.829Z,1016.68
2019-02-17T07:14:14.828Z,1016.66
2019-02-17T07:15:14.807Z,1016.62
2019-02-17T07:16:14.840Z,1016.63
2019-02-17T07:17:14.785Z,1016.64
2019-02-17T07:18:14.787Z,1016.68
2019-02-17T07:19:14.764Z,1016.66
2019-02-17T07:20:14.752Z,1016.65
2019-02-17T07:21:14.740Z,1016.65
2019-02-17T07:22:14.763Z,1016.66
2019-02-17T07:23:15.439Z,1016.64
2019-02-17T07:24:14.728Z,1016.61
2019-02-17T07:25:14.696Z,1016.64
2019-02-17T07:26:17.035Z,1016.62
2019-02-17T07:27:14.675Z,1016.63
2019-02-17T07:28:14.684Z,1016.61
2019-02-17T07:29:16.753Z,1016.65
2019-02-17T07:30:14.662Z,1016.64
2019-02-17T07:31:14.630Z,1016.65
2019-02-17T07:32:14.622Z,1016.66
2019-02-17T07:33:14.611Z,1016.65
2019-02-17T07:34:14.629Z,1016.65
2019-02-17T07:35:14.587Z,1016.64
2019-02-17T07:36:14.589Z,1016.62
2019-02-17T07:37:14.564Z,1016.61
2019-02-17T07:38:14.557Z,1016.64
2019-02-17T07:39:14.580Z,1016.63
2019-02-17T07:40:14.530Z,1016.61
2019-02-17T07:41:14.535Z,1016.62
2019-02-17T07:42:14.511Z,1016.64
2019-02-17T07:43:14.498Z,1016.56
2019-02-17T07:44:14.487Z,1016.61
2019-02-17T07:45:14.520Z,1016.65
2019-02-17T07:46:14.465Z,1016.57
2019-02-17T07:47:14.491Z,1016.63
2019-02-17T07:48:14.453Z,1016.59
2019-02-17T07:49:14.434Z,1016.62
2019-02-17T07:50:14.420Z,1016.64
2019-02-17T07:51:14.440Z,1016.61
2019-02-17T07:52:14.401Z,1016.62
2019-02-17T07:53:14.401Z,1016.64
2019-02-17T07:54:14.382Z,1016.60
2019-02-17T07:55:14.368Z,1016.60
2019-02-17T07:56:14.354Z,1016.58
2019-02-17T07:57:14.380Z,1016.60
2019-02-17T07:58:14.350Z,1016.62
2019-02-17T07:59:14.320Z,1016.57
2019-02-17T08:00:14.309Z,1016.57
2019-02-17T08:01:14.298Z,1016.56
2019-02-17T08:02:14.290Z,1016.57
2019-02-17T08:03:14.316Z,1016.54
2019-02-17T08:04:14.282Z,1016.61
2019-02-17T08:05:14.255Z,1016.59
2019-02-17T08:06:14.245Z,1016.54
2019-02-17T08:07:14.232Z,1016.52
2019-02-17T08:08:14.226Z,1016.52
2019-02-17T08:09:14.251Z,1016.53
2019-02-17T08:10:14.210Z,1016.57
2019-02-17T08:11:14.189Z,1016.55
2019-02-17T08:12:14.177Z,1016.52
2019-02-17T08:13:14.165Z,1016.53
2019-02-17T08:14:14.184Z,1016.50
2019-02-17T08:15:14.188Z,1016.53
2019-02-17T08:16:14.134Z,1016.52
2019-02-17T08:17:14.139Z,1016.51
2019-02-17T08:18:14.111Z,1016.50
2019-02-17T08:19:14.101Z,1016.51
2019-02-17T08:20:14.087Z,1016.53
2019-02-17T08:21:14.125Z,1016.51
2019-02-17T08:22:14.064Z,1016.54
2019-02-17T08:23:14.069Z,1016.52
2019-02-17T08:24:14.051Z,1016.52
2019-02-17T08:25:21.446Z,1016.52
2019-02-17T08:26:15.024Z,1016.56
2019-02-17T08:27:14.052Z,1016.63
2019-02-17T08:28:14.000Z,1016.65
2019-02-17T08:29:14.003Z,1016.70
2019-02-17T08:30:13.978Z,1016.52
2019-02-17T08:31:13.965Z,1016.51
2019-02-17T08:32:13.955Z,1016.54
2019-02-17T08:33:13.972Z,1016.60
2019-02-17T08:34:13.931Z,1016.53
2019-02-17T08:35:13.942Z,1016.59
2019-02-17T08:36:13.914Z,1016.66
2019-02-17T08:37:13.897Z,1016.63
2019-02-17T08:38:13.886Z,1016.67
2019-02-17T08:39:13.892Z,1016.65
2019-02-17T08:40:13.863Z,1016.62
2019-02-17T08:41:13.870Z,1016.48
2019-02-17T08:42:13.843Z,1016.37
2019-02-17T08:43:13.829Z,1016.38
2019-02-17T08:44:13.818Z,1016.31
2019-02-17T08:45:13.824Z,1016.34
2019-02-17T08:46:13.795Z,1016.31
2019-02-17T08:47:13.805Z,1016.34
2019-02-17T08:48:13.772Z,1016.37
2019-02-17T08:49:13.763Z,1016.36
2019-02-17T08:50:13.752Z,1016.38
2019-02-17T08:51:13.757Z,1016.36
2019-02-17T08:52:13.743Z,1016.37
2019-02-17T08:53:13.716Z,1016.37
2019-02-17T08:54:13.706Z,1016.34
2019-02-17T08:55:13.696Z,1016.34
2019-02-17T08:56:13.683Z,1016.33
2019-02-17T08:57:13.671Z,1016.32
2019-02-17T08:58:13.670Z,1016.34
2019-02-17T08:59:13.647Z,1016.27
2019-02-17T09:00:13.645Z,1016.28
2019-02-17T09:01:13.625Z,1016.35
2019-02-17T09:02:13.631Z,1016.32
2019-02-17T09:03:13.604Z,1016.31
2019-02-17T09:04:13.590Z,1016.31
2019-02-17T09:05:13.584Z,1016.34
2019-02-17T09:06:13.571Z,1016.29
2019-02-17T09:07:13.562Z,1016.32
2019-02-17T09:08:13.569Z,1016.31
2019-02-17T09:09:13.542Z,1016.30
2019-02-17T09:10:13.565Z,1016.31
2019-02-17T09:11:13.516Z,1016.38
2019-02-17T09:12:13.506Z,1016.33
2019-02-17T09:13:13.502Z,1016.35
2019-02-17T09:14:13.503Z,1016.32
2019-02-17T09:15:13.493Z,1016.32
2019-02-17T09:16:13.463Z,1016.32
2019-02-17T09:17:13.477Z,1016.29
2019-02-17T09:18:13.441Z,1016.28
2019-02-17T09:19:13.430Z,1016.30
2019-02-17T09:20:13.437Z,1016.28
2019-02-17T09:21:13.408Z,1016.29
2019-02-17T09:22:13.408Z,1016.28
2019-02-17T09:23:13.388Z,1016.29
2019-02-17T09:24:13.391Z,1016.26
2019-02-17T09:25:13.361Z,1016.26
2019-02-17T09:26:13.357Z,1016.25
2019-02-17T09:27:13.339Z,1016.22
2019-02-17T09:28:13.359Z,1016.23
2019-02-17T09:29:13.353Z,1016.26
2019-02-17T09:30:13.306Z,1016.26
2019-02-17T09:31:13.315Z,1016.26
2019-02-17T09:32:16.311Z,1016.26
2019-02-17T09:33:13.275Z,1016.24
2019-02-17T09:34:13.309Z,1016.23
2019-02-17T09:35:13.251Z,1016.23
2019-02-17T09:36:13.238Z,1016.24
2019-02-17T09:37:13.247Z,1016.20
2019-02-17T09:38:13.250Z,1016.25
2019-02-17T09:39:13.214Z,1016.23
2019-02-17T09:40:13.197Z,1016.25
2019-02-17T09:41:13.191Z,1016.24
2019-02-17T09:42:13.196Z,1016.21
2019-02-17T09:43:13.167Z,1016.21
2019-02-17T09:44:13.151Z,1016.16
2019-02-17T09:45:13.153Z,1016.16
2019-02-17T09:46:13.123Z,1016.15
2019-02-17T09:47:13.110Z,1016.15
2019-02-17T09:48:13.112Z,1016.13
2019-02-17T09:49:13.090Z,1016.15
2019-02-17T09:50:13.078Z,1016.13
2019-02-17T09:51:13.082Z,1016.08
2019-02-17T09:52:13.058Z,1016.12
2019-02-17T09:53:13.047Z,1016.06
2019-02-17T09:54:13.035Z,1016.07
2019-02-17T09:55:13.032Z,1016.07
2019-02-17T09:56:13.020Z,1016.06
2019-02-17T09:57:13.023Z,1016.07
2019-02-17T09:58:13.001Z,1016.05
2019-02-17T09:59:12.985Z,1016.05
2019-02-17T10:00:12.973Z,1016.05
2019-02-17T10:01:12.967Z,1016.08
2019-02-17T10:02:12.978Z,1016.04
2019-02-17T10:03:12.952Z,1016.02
2019-02-17T10:04:12.932Z,1015.98
2019-02-17T10:05:12.932Z,1016.01
2019-02-17T10:06:12.932Z,1016.01
2019-02-17T10:07:12.894Z,1015.99
2019-02-17T10:08:12.906Z,1015.99
2019-02-17T10:09:12.873Z,1015.96
2019-02-17T10:10:12.868Z,1015.97
2019-02-17T10:11:12.867Z,1015.97
2019-02-17T10:12:12.858Z,1015.97
2019-02-17T10:13:12.826Z,1015.94
2019-02-17T10:14:12.846Z,1015.96
2019-02-17T10:15:12.806Z,1015.93
2019-02-17T10:16:12.810Z,1015.97
2019-02-17T10:17:12.784Z,1015.89
2019-02-17T10:18:12.766Z,1015.89
2019-02-17T10:19:12.762Z,1015.94
2019-02-17T10:20:12.775Z,1015.90
2019-02-17T10:21:12.734Z,1015.90
2019-02-17T10:22:12.721Z,1015.89
2019-02-17T10:23:12.718Z,1015.88
2019-02-17T10:24:12.699Z,1015.87
2019-02-17T10:25:12.755Z,1015.90
2019-02-17T10:26:12.700Z,1015.87
2019-02-17T10:27:12.682Z,1015.89
2019-02-17T10:28:12.678Z,1015.85
2019-02-17T10:29:12.643Z,1015.89
2019-02-17T10:30:12.635Z,1015.83
2019-02-17T10:31:12.621Z,1015.77
2019-02-17T10:32:12.622Z,1015.81
2019-02-17T10:33:12.604Z,1015.79
2019-02-17T10:34:12.617Z,1015.82
2019-02-17T10:35:12.591Z,1015.80
2019-02-17T10:36:12.572Z,1015.77
2019-02-17T10:37:12.575Z,1015.78
2019-02-17T10:38:12.545Z,1015.79
2019-02-17T10:39:12.563Z,1015.78
2019-02-17T10:40:12.521Z,1015.78
2019-02-17T10:41:12.509Z,1015.78
2019-02-17T10:42:12.517Z,1015.79
2019-02-17T10:43:12.492Z,1015.76
2019-02-17T10:44:12.486Z,1015.74
2019-02-17T10:45:12.478Z,1015.74
2019-02-17T10:46:12.462Z,1015.70
2019-02-17T10:47:12.465Z,1015.72
2019-02-17T10:48:12.449Z,1015.68
2019-02-17T10:49:12.427Z,1015.68
2019-02-17T10:50:12.430Z,1015.63
2019-02-17T10:51:12.405Z,1015.68
2019-02-17T10:52:12.516Z,1015.68
2019-02-17T10:53:12.433Z,1015.68
2019-02-17T10:54:12.383Z,1015.61
2019-02-17T10:55:12.363Z,1015.60
2019-02-17T10:56:12.400Z,1015.60
2019-02-17T10:57:12.344Z,1015.55
2019-02-17T10:58:12.321Z,1015.58
2019-02-17T10:59:12.348Z,1015.53
2019-02-17T11:00:12.310Z,1015.55
2019-02-17T11:01:12.288Z,1015.50
2019-02-17T11:02:12.297Z,1015.51
2019-02-17T11:03:12.283Z,1015.51
2019-02-17T11:04:12.257Z,1015.49
2019-02-17T11:05:12.295Z,1015.48
2019-02-17T11:06:12.233Z,1015.45
2019-02-17T11:07:12.227Z,1015.47
2019-02-17T11:08:12.213Z,1015.49
2019-02-17T11:09:12.197Z,1015.40
2019-02-17T11:10:12.195Z,1015.40
2019-02-17T11:11:12.202Z,1015.34
2019-02-17T11:12:12.176Z,1015.37
2019-02-17T11:13:12.187Z,1015.32
2019-02-17T11:14:12.141Z,1015.32
2019-02-17T11:15:12.137Z,1015.32
2019-02-17T11:16:12.114Z,1015.32
2019-02-17T11:17:12.124Z,1015.29
2019-02-17T11:18:12.101Z,1015.26
2019-02-17T11:19:12.082Z,1015.25
2019-02-17T11:20:12.073Z,1015.20
2019-02-17T11:21:12.073Z,1015.20
2019-02-17T11:22:12.063Z,1015.16
2019-02-17T11:23:12.059Z,1015.17
2019-02-17T11:24:12.121Z,1015.17
2019-02-17T11:25:12.031Z,1015.18
2019-02-17T11:26:12.009Z,1015.18
2019-02-17T11:27:11.998Z,1015.19
2019-02-17T11:28:11.987Z,1015.20
2019-02-17T11:29:11.986Z,1015.14
2019-02-17T11:30:11.968Z,1015.14
2019-02-17T11:31:11.973Z,1015.13
2019-02-17T11:32:11.937Z,1015.09
2019-02-17T11:33:12.249Z,1015.10
2019-02-17T11:34:12.156Z,1015.09
2019-02-17T11:35:12.069Z,1015.07
2019-02-17T11:36:12.052Z,1015.07
2019-02-17T11:37:11.998Z,1015.05
2019-02-17T11:38:12.116Z,1015.00
2019-02-17T11:39:11.980Z,1015.02
2019-02-17T11:40:11.920Z,1015.00
2019-02-17T11:41:12.660Z,1014.97
2019-02-17T11:42:11.905Z,1014.99
2019-02-17T11:43:11.900Z,1014.99
2019-02-17T11:44:11.869Z,1014.99
2019-02-17T11:45:11.963Z,1015.00
2019-02-17T11:46:11.834Z,1015.00
2019-02-17T11:47:11.769Z,1014.99
2019-02-17T11:48:11.789Z,1014.92
2019-02-17T11:49:11.747Z,1014.95
2019-02-17T11:50:11.737Z,1014.94
2019-02-17T11:51:11.787Z,1014.90
2019-02-17T11:52:11.714Z,1014.90
2019-02-17T11:53:11.701Z,1014.83
2019-02-17T11:54:11.692Z,1014.84
2019-02-17T11:55:11.681Z,1014.83
2019-02-17T11:56:11.689Z,1014.85
2019-02-17T11:57:11.743Z,1014.82
2019-02-17T11:58:11.652Z,1014.81
2019-02-17T11:59:11.641Z,1014.82
2019-02-17T12:00:11.633Z,1014.83
2019-02-17T12:01:11.617Z,1014.81
2019-02-17T12:02:11.629Z,1014.76
2019-02-17T12:03:11.615Z,1014.79
2019-02-17T12:04:11.581Z,1014.74
2019-02-17T12:05:11.571Z,1014.71